Airfield :
LOGIN :

Register | Disclaimer

   EN    FR    IT 

 










Legend :    VFR   Marginal VFR   IFR   Intensive IFR   Very Intensive IFR
Visi :
Ceiling :
>= 8 km
>= 3000ft
5 to 8 km
1000 to 3000 ft
1500m to 5 km
500 to 1000 ft
800 to 1500m
200 to 500 ft
< 800m
< 200 ft
Symbols :   Thunderstorms  Fog  Heavy snow  Heavy precipitations  Wind > 20 kt
SIGMETs :     Misc.  Thunderstorms  Icing  Turbulence  Mountain Waves  Volcanic Ashes







- Airport Elevation : 15 ft
- IATA code : FCO


LIRF - Roma Leonardo da Vinci Fiumicino

CURRENT METAR :
  • 151320Z 22010KT CAVOK 28/16 Q1022 NOSIG

EXPIRED METARs :
  • 151250Z 21007KT 160V260 CAVOK 29/16 Q1022 NOSIG
  • 151220Z 21008KT 170V250 CAVOK 29/16 Q1022 NOSIG
  • 151150Z 22007KT 190V250 CAVOK 28/18 Q1023 NOSIG
  • 151120Z 19006KT 150V210 CAVOK 28/16 Q1023 NOSIG
  • 151050Z 21007KT 170V250 9999 FEW035 28/18 Q1023 NOSIG

TAF TAF LIRF
Valid from the 15 at 12:00 until the 16 at 18:00 UTC


151100Z 1512/1618 25012KT CAVOK
BECMG 1516/1518 VRB04KT
TEMPO 1523/1604 4000 BR
BECMG 1609/1611 25012KT
No reported NOTAMs for that airfield.



MET'MAP, your aeronautical weather chart ! - Copyright ORBIFLY December 2007 - Disclaimer

ORBIFLY MET'MAP TEAM :

Programming & Development : Alexandra Zaïnal
Concept & Development : Baudouin d'Aumeries
Co-Development & Prog : Marc-Olivier Méhu
Technical & hardware support : Manuel Goepfert

Contact : metmap@orbifly.com




SOURCES & CREDITS :

   NOAA